Time;durP1;ratioP1;P1;durP2;ratioP2;P2;SDS_P1;SDS_P2;PMS_P1;PMS_P2;Temp;Humidity;BMP_temperature;BMP_pressure;BME280_temperature;BME280_humidity;BME280_pressure;Samples;Min_cycle;Max_cycle;Signal;HPM_P1;HPM_P2
2022/07/15 00:01:42;;;;;;;2.50;1.33;;;16.00;99.90;;;;;;5073010;28;20300;-73
2022/07/15 00:04:07;;;;;;;2.93;1.17;;;16.00;99.90;;;;;;5072945;28;20206;-73
2022/07/15 00:06:33;;;;;;;2.67;1.30;;;15.90;99.90;;;;;;5072717;28;20174;-73
2022/07/15 00:08:58;;;;;;;3.37;1.10;;;15.80;99.90;;;;;;5072662;28;20554;-73
2022/07/15 00:11:24;;;;;;;1.50;1.30;;;15.80;99.90;;;;;;5072887;28;20276;-73
2022/07/15 00:13:50;;;;;;;2.37;1.53;;;15.80;99.90;;;;;;5072715;28;20220;-73
2022/07/15 00:16:15;;;;;;;1.40;1.23;;;15.80;99.90;;;;;;5072239;28;20201;-73
2022/07/15 00:18:41;;;;;;;1.50;1.40;;;15.80;99.90;;;;;;5072592;28;20197;-73
2022/07/15 00:21:07;;;;;;;2.07;1.10;;;15.80;99.90;;;;;;5072708;28;20171;-73
2022/07/15 00:23:32;;;;;;;2.40;1.30;;;15.70;99.90;;;;;;5072503;28;20408;-73
2022/07/15 00:25:58;;;;;;;5.33;1.80;;;15.70;99.90;;;;;;5072307;28;20174;-73
2022/07/15 00:28:24;;;;;;;6.30;2.00;;;15.60;99.90;;;;;;5072449;28;20208;-73
2022/07/15 00:30:50;;;;;;;4.60;1.60;;;15.60;99.90;;;;;;5072534;28;20534;-73
2022/07/15 00:33:15;;;;;;;2.90;1.83;;;15.60;99.90;;;;;;5072397;28;20178;-73
2022/07/15 00:35:41;;;;;;;3.63;1.73;;;15.60;99.90;;;;;;5072819;28;20198;-74
2022/07/15 00:38:09;;;;;;;1.70;1.60;;;15.50;99.90;;;;;;5074886;28;20575;-74
2022/07/15 00:40:43;;;;;;;2.27;1.20;;;15.50;99.90;;;;;;5073292;28;20365;-74
2022/07/15 00:43:09;;;;;;;2.37;1.60;;;15.50;99.90;;;;;;5074175;28;20898;-74
2022/07/15 00:45:35;;;;;;;3.77;1.63;;;15.40;99.90;;;;;;5073714;28;20416;-74
2022/07/15 00:48:00;;;;;;;1.43;1.20;;;15.40;99.90;;;;;;5073920;28;20487;-74
2022/07/15 00:50:28;;;;;;;2.57;1.60;;;15.30;99.90;;;;;;5072755;28;20269;-74
2022/07/15 00:52:56;;;;;;;3.80;2.13;;;15.30;99.90;;;;;;5074400;28;20198;-74
2022/07/15 00:55:23;;;;;;;3.20;1.67;;;15.20;99.90;;;;;;5073598;28;20957;-74
2022/07/15 00:57:51;;;;;;;3.70;2.03;;;15.20;99.90;;;;;;5074292;28;20901;-74
2022/07/15 01:00:17;;;;;;;4.23;1.70;;;15.20;99.90;;;;;;5073792;28;20421;-74
2022/07/15 01:02:49;;;;;;;3.13;1.87;;;15.20;99.90;;;;;;5074134;28;20405;-74
2022/07/15 01:05:16;;;;;;;1.33;1.07;;;15.20;99.90;;;;;;5073817;28;20632;-74
2022/07/15 01:07:42;;;;;;;2.13;1.37;;;15.10;99.90;;;;;;5073888;28;20503;-74
2022/07/15 01:10:08;;;;;;;1.57;1.47;;;15.10;99.90;;;;;;5073887;28;20459;-73
2022/07/15 01:12:37;;;;;;;3.53;1.47;;;15.10;99.90;;;;;;5074038;28;20535;-74
2022/07/15 01:15:03;;;;;;;1.67;1.57;;;15.10;99.90;;;;;;5074183;28;20501;-74
2022/07/15 01:17:29;;;;;;;2.10;1.70;;;15.10;99.90;;;;;;5074086;28;20432;-74
2022/07/15 01:19:55;;;;;;;2.40;1.83;;;15.10;99.90;;;;;;5072547;28;20852;-74
2022/07/15 01:22:21;;;;;;;2.50;1.30;;;15.10;99.90;;;;;;5073951;28;20690;-74
2022/07/15 01:24:46;;;;;;;3.87;1.80;;;15.10;99.90;;;;;;5073641;28;20246;-74
2022/07/15 01:27:12;;;;;;;1.40;1.27;;;15.10;99.90;;;;;;5074207;28;20905;-74
2022/07/15 01:29:37;;;;;;;2.30;1.87;;;15.10;99.90;;;;;;5073620;28;20194;-74
2022/07/15 01:32:03;;;;;;;2.23;1.83;;;15.10;99.90;;;;;;5073856;28;20192;-74
2022/07/15 01:34:29;;;;;;;4.40;2.60;;;15.10;99.90;;;;;;5072795;28;20174;-74
2022/07/15 01:36:54;;;;;;;2.27;1.50;;;15.10;99.90;;;;;;5073449;28;20526;-74
2022/07/15 01:39:20;;;;;;;3.50;1.70;;;15.10;99.90;;;;;;5073572;28;20605;-74
2022/07/15 01:41:45;;;;;;;2.30;1.60;;;15.10;99.90;;;;;;5073370;28;20177;-74
2022/07/15 01:44:14;;;;;;;2.03;1.80;;;15.10;99.90;;;;;;5073719;28;20170;-74
2022/07/15 01:46:39;;;;;;;1.60;1.50;;;15.10;99.90;;;;;;5075376;28;20602;-74
2022/07/15 01:49:25;;;;;;;2.33;2.10;;;15.10;99.90;;;;;;5077342;28;20521;-74
2022/07/15 01:51:53;;;;;;;4.63;1.87;;;15.20;99.90;;;;;;5077443;28;20174;-74
2022/07/15 01:54:19;;;;;;;4.50;3.60;;;15.30;99.90;;;;;;5076012;28;20408;-74
2022/07/15 01:56:44;;;;;;;4.50;2.50;;;15.40;99.90;;;;;;5077263;28;20794;-74
2022/07/15 01:59:10;;;;;;;4.80;1.70;;;15.50;99.90;;;;;;5077418;28;20196;-74
2022/07/15 02:01:36;;;;;;;1.67;1.57;;;15.60;99.90;;;;;;5076283;28;20171;-74
2022/07/15 02:04:01;;;;;;;5.73;1.67;;;15.70;99.90;;;;;;5076992;28;20180;-74
2022/07/15 02:06:27;;;;;;;1.97;1.70;;;15.70;99.90;;;;;;5076830;28;20206;-74
2022/07/15 02:08:52;;;;;;;3.23;1.87;;;15.80;99.90;;;;;;5077248;28;20695;-74
2022/07/15 02:11:18;;;;;;;3.40;1.67;;;15.90;99.90;;;;;;5076841;28;20249;-74
2022/07/15 02:13:44;;;;;;;3.10;1.67;;;16.00;99.90;;;;;;5076818;28;20196;-74
2022/07/15 02:16:09;;;;;;;3.43;1.83;;;16.00;99.90;;;;;;5076656;28;20193;-74
2022/07/15 02:18:35;;;;;;;4.93;1.80;;;16.00;99.90;;;;;;5076482;28;20189;-74
2022/07/15 02:21:02;;;;;;;1.70;1.30;;;16.00;99.90;;;;;;5076869;28;20157;-74
2022/07/15 02:23:28;;;;;;;2.83;1.63;;;16.00;99.90;;;;;;5076738;28;20602;-74
2022/07/15 02:25:54;;;;;;;5.40;2.30;;;15.90;99.90;;;;;;5076128;28;20820;-74
2022/07/15 02:28:20;;;;;;;2.70;2.13;;;15.90;99.90;;;;;;5076454;28;20404;-74
2022/07/15 02:30:45;;;;;;;2.17;1.70;;;15.90;99.90;;;;;;5076347;28;20579;-74
2022/07/15 02:33:13;;;;;;;2.97;1.77;;;15.90;99.90;;;;;;5076701;28;20162;-74
2022/07/15 02:35:39;;;;;;;3.00;1.83;;;15.80;99.90;;;;;;5075874;28;20197;-74
2022/07/15 02:38:05;;;;;;;2.23;1.70;;;15.80;99.90;;;;;;5076121;28;20401;-74
2022/07/15 02:40:31;;;;;;;1.53;1.33;;;15.80;99.90;;;;;;5077016;28;20427;-74
2022/07/15 02:42:59;;;;;;;4.23;2.33;;;15.80;99.90;;;;;;5076581;28;20517;-75
2022/07/15 02:45:27;;;;;;;6.17;2.70;;;15.80;99.90;;;;;;5076476;28;20173;-74
2022/07/15 02:47:53;;;;;;;2.47;1.90;;;15.80;99.90;;;;;;5076057;28;20905;-74
2022/07/15 02:50:20;;;;;;;4.13;1.40;;;15.80;99.90;;;;;;5076119;28;20530;-74
2022/07/15 02:52:46;;;;;;;3.40;1.77;;;15.80;99.90;;;;;;5075853;28;20210;-74
2022/07/15 02:55:13;;;;;;;5.97;2.43;;;15.80;99.90;;;;;;5075390;28;20563;-74
2022/07/15 02:57:40;;;;;;;2.13;1.53;;;15.80;99.90;;;;;;5073779;28;20493;-74
2022/07/15 03:00:12;;;;;;;2.63;1.47;;;15.90;99.90;;;;;;5076175;28;20485;-74
2022/07/15 03:02:38;;;;;;;1.60;1.30;;;15.90;99.90;;;;;;5076311;28;20420;-74
2022/07/15 03:05:04;;;;;;;4.67;1.87;;;15.90;99.90;;;;;;5075672;28;20500;-74
2022/07/15 03:07:30;;;;;;;4.93;1.73;;;16.00;99.90;;;;;;5075365;28;20804;-74
2022/07/15 03:09:56;;;;;;;3.10;1.73;;;16.00;99.90;;;;;;5075591;28;20432;-74
2022/07/15 03:12:22;;;;;;;7.20;1.67;;;16.00;99.90;;;;;;5075750;28;20495;-74
2022/07/15 03:14:47;;;;;;;4.00;1.67;;;16.00;99.90;;;;;;5075376;28;20448;-74
2022/07/15 03:17:13;;;;;;;1.40;1.03;;;16.10;99.90;;;;;;5075587;28;20174;-74
2022/07/15 03:19:39;;;;;;;1.50;1.20;;;16.10;99.90;;;;;;5075494;28;20252;-74
2022/07/15 03:22:06;;;;;;;8.23;3.07;;;16.10;99.90;;;;;;5075604;28;20528;-74
2022/07/15 03:24:31;;;;;;;2.27;1.60;;;16.10;99.90;;;;;;5073877;28;20405;-74
2022/07/15 03:26:57;;;;;;;3.40;1.90;;;16.10;99.90;;;;;;5075617;28;20909;-74
2022/07/15 03:29:23;;;;;;;3.73;1.83;;;16.10;99.90;;;;;;5075264;28;20190;-74
2022/07/15 03:31:48;;;;;;;2.33;2.10;;;16.00;99.90;;;;;;5075141;28;20170;-73
2022/07/15 03:34:14;;;;;;;1.67;1.57;;;16.10;99.90;;;;;;5075135;28;20166;-73
2022/07/15 03:36:40;;;;;;;8.93;1.70;;;16.10;99.90;;;;;;5075433;28;20198;-74
2022/07/15 03:39:06;;;;;;;1.70;1.50;;;16.10;99.90;;;;;;5075384;28;20197;-74
2022/07/15 03:41:33;;;;;;;1.53;1.33;;;16.10;99.90;;;;;;5075429;28;20898;-74
2022/07/15 03:44:00;;;;;;;5.30;1.40;;;16.10;99.90;;;;;;5074922;28;20392;-74
2022/07/15 03:46:25;;;;;;;1.87;1.67;;;16.20;99.90;;;;;;5074727;28;20483;-74
2022/07/15 03:48:51;;;;;;;2.87;1.57;;;16.20;99.90;;;;;;5073805;28;20491;-74
2022/07/15 03:51:17;;;;;;;1.30;1.03;;;16.10;99.90;;;;;;5075251;28;20522;-74
2022/07/15 03:53:43;;;;;;;5.27;1.90;;;16.20;99.90;;;;;;5074673;28;20252;-74
2022/07/15 03:56:08;;;;;;;2.77;1.77;;;16.20;99.90;;;;;;5074465;28;20658;-74
2022/07/15 03:58:34;;;;;;;2.93;1.67;;;16.20;99.90;;;;;;5074652;28;20197;-74
2022/07/15 04:00:59;;;;;;;5.60;2.07;;;16.20;99.90;;;;;;5074793;28;20167;-74
2022/07/15 04:03:25;;;;;;;1.50;1.00;;;16.20;99.90;;;;;;5074963;28;20528;-74
2022/07/15 04:05:51;;;;;;;3.53;1.27;;;16.20;99.90;;;;;;5074321;28;20706;-73
2022/07/15 04:08:16;;;;;;;2.27;1.40;;;16.20;99.90;;;;;;5074689;28;20184;-74
2022/07/15 04:10:42;;;;;;;2.07;1.57;;;16.20;99.90;;;;;;5074643;28;20194;-74
2022/07/15 04:13:07;;;;;;;2.37;1.57;;;16.20;99.90;;;;;;5074640;28;20275;-75
2022/07/15 04:15:33;;;;;;;3.00;1.60;;;16.20;99.90;;;;;;5074623;28;20206;-75
2022/07/15 04:17:59;;;;;;;2.83;1.70;;;16.20;99.90;;;;;;5074719;28;20205;-74
2022/07/15 04:20:25;;;;;;;1.97;1.30;;;16.10;99.90;;;;;;5073327;28;20186;-74
2022/07/15 04:22:51;;;;;;;7.07;1.43;;;16.10;99.90;;;;;;5074401;28;20632;-74
2022/07/15 04:25:18;;;;;;;1.40;1.20;;;16.00;99.90;;;;;;5072985;28;20416;-74
2022/07/15 04:27:45;;;;;;;8.20;1.50;;;16.00;99.90;;;;;;5074471;28;20405;-74
2022/07/15 04:30:12;;;;;;;1.90;1.50;;;16.00;99.90;;;;;;5074467;28;20428;-74
2022/07/15 04:32:38;;;;;;;2.73;1.10;;;16.00;99.90;;;;;;5074213;28;20550;-74
2022/07/15 04:35:05;;;;;;;1.93;1.63;;;15.90;99.90;;;;;;5074193;28;20527;-74
2022/07/15 04:37:30;;;;;;;1.77;1.43;;;15.90;99.90;;;;;;5073533;28;20190;-74
2022/07/15 04:39:56;;;;;;;2.40;1.70;;;15.90;99.90;;;;;;5074545;28;20998;-74
2022/07/15 04:42:22;;;;;;;4.43;1.30;;;16.00;99.90;;;;;;5074117;28;20249;-74
2022/07/15 04:44:48;;;;;;;1.70;1.43;;;16.00;99.90;;;;;;5073953;28;20185;-74
2022/07/15 04:47:15;;;;;;;3.40;1.80;;;16.10;99.90;;;;;;5072924;28;20413;-74
2022/07/15 04:52:25;;;;;;;3.10;1.60;;;16.20;99.90;;;;;;5074172;28;20435;-74
2022/07/15 04:54:52;;;;;;;2.80;1.20;;;16.40;99.90;;;;;;5074016;28;20448;-74
2022/07/15 04:57:18;;;;;;;2.17;1.97;;;16.40;99.90;;;;;;5073926;28;20224;-74
2022/07/15 04:59:43;;;;;;;2.43;1.33;;;16.50;99.90;;;;;;5074139;28;20438;-74
2022/07/15 05:02:09;;;;;;;2.20;1.60;;;16.60;99.90;;;;;;5073887;28;20401;-74
2022/07/15 05:04:34;;;;;;;3.80;1.60;;;16.60;99.90;;;;;;5073435;28;20177;-74
2022/07/15 05:07:00;;;;;;;2.03;1.30;;;16.60;99.90;;;;;;5073710;28;20166;-74
2022/07/15 05:09:26;;;;;;;1.97;1.50;;;16.60;99.90;;;;;;5073783;28;20181;-74
2022/07/15 05:11:52;;;;;;;4.13;2.10;;;16.70;99.90;;;;;;5073805;28;20245;-74
2022/07/15 05:14:17;;;;;;;3.53;3.00;;;16.80;99.90;;;;;;5073573;28;20476;-74
2022/07/15 05:16:43;;;;;;;3.83;1.90;;;16.80;99.90;;;;;;5073454;28;20251;-73
2022/07/15 05:19:09;;;;;;;2.37;1.73;;;16.90;99.90;;;;;;5073619;28;20193;-74
2022/07/15 05:21:34;;;;;;;1.43;1.23;;;16.90;99.90;;;;;;5073246;28;20162;-74
2022/07/15 05:24:00;;;;;;;2.20;1.33;;;17.00;99.90;;;;;;5073751;28;20170;-73
2022/07/15 05:26:25;;;;;;;4.53;1.53;;;17.00;99.90;;;;;;5073077;28;20189;-74
2022/07/15 05:28:51;;;;;;;1.70;1.50;;;17.10;99.90;;;;;;5073727;28;20194;-73
2022/07/15 05:31:17;;;;;;;2.27;1.20;;;17.10;99.90;;;;;;5073636;28;20174;-74
2022/07/15 05:33:43;;;;;;;1.37;1.27;;;17.20;99.90;;;;;;5073275;28;20890;-74
2022/07/15 05:36:13;;;;;;;2.90;1.47;;;17.30;99.90;;;;;;5072999;28;20194;-74
2022/07/15 05:38:39;;;;;;;2.10;1.40;;;17.40;99.90;;;;;;5073277;28;20492;-74
2022/07/15 05:41:04;;;;;;;3.07;1.60;;;17.50;99.90;;;;;;5072498;28;20499;-74
2022/07/15 05:43:30;;;;;;;2.30;1.47;;;17.60;99.90;;;;;;5073547;28;20443;-74
2022/07/15 05:45:56;;;;;;;2.40;2.03;;;17.70;99.90;;;;;;5073214;28;20181;-74
2022/07/15 05:48:22;;;;;;;2.27;1.50;;;17.70;99.90;;;;;;5073253;28;20408;-74
2022/07/15 05:50:48;;;;;;;1.77;1.60;;;17.90;99.90;;;;;;5073242;28;20304;-74
2022/07/15 05:53:14;;;;;;;1.97;1.60;;;18.00;99.90;;;;;;5072993;28;20428;-74
2022/07/15 05:55:40;;;;;;;2.00;1.50;;;18.10;99.90;;;;;;5072910;28;20202;-74
2022/07/15 05:58:09;;;;;;;3.30;1.57;;;18.30;99.90;;;;;;5073033;28;20269;-74
2022/07/15 06:00:36;;;;;;;1.87;1.30;;;18.50;99.90;;;;;;5071611;28;20428;-74
2022/07/15 06:03:03;;;;;;;3.00;1.27;;;18.70;99.90;;;;;;5072765;28;20767;-74
2022/07/15 06:05:29;;;;;;;1.40;1.20;;;18.90;99.90;;;;;;5072628;28;20408;-73
2022/07/15 06:07:55;;;;;;;2.97;2.67;;;19.10;99.90;;;;;;5072558;28;20542;-74
2022/07/15 06:10:21;;;;;;;5.53;1.97;;;19.20;99.90;;;;;;5072864;28;20463;-74
2022/07/15 06:12:47;;;;;;;5.63;2.47;;;19.30;99.90;;;;;;5072342;28;20439;-74
2022/07/15 06:15:12;;;;;;;2.90;1.43;;;19.40;99.90;;;;;;5071339;28;20204;-74
2022/07/15 06:17:38;;;;;;;4.40;2.00;;;19.40;99.90;;;;;;5072792;28;20407;-74
2022/07/15 06:20:06;;;;;;;2.00;1.57;;;19.40;99.90;;;;;;5072768;28;20182;-74
2022/07/15 06:22:31;;;;;;;2.63;1.40;;;19.50;99.90;;;;;;5072970;28;20473;-74
2022/07/15 06:24:57;;;;;;;4.80;1.33;;;19.80;99.90;;;;;;5072367;28;20436;-74
2022/07/15 06:27:22;;;;;;;5.37;1.10;;;20.10;99.90;;;;;;5071609;28;20182;-74
2022/07/15 06:29:52;;;;;;;2.20;0.80;;;20.30;99.90;;;;;;5072852;28;20190;-74
2022/07/15 06:32:18;;;;;;;1.87;1.50;;;20.50;99.90;;;;;;5071327;28;20182;-74
2022/07/15 06:34:44;;;;;;;2.73;1.47;;;20.80;99.90;;;;;;5074531;28;20424;-74
2022/07/15 06:37:10;;;;;;;4.60;2.37;;;21.40;99.90;;;;;;5076145;28;20920;-74
2022/07/15 06:39:36;;;;;;;2.20;1.20;;;22.00;99.90;;;;;;5076599;28;20424;-74
2022/07/15 06:42:02;;;;;;;6.73;1.20;;;22.60;99.90;;;;;;5077374;28;20245;-74
2022/07/15 06:44:28;;;;;;;1.97;1.20;;;23.20;99.90;;;;;;5075996;28;20412;-73
2022/07/15 06:46:53;;;;;;;1.20;1.00;;;23.90;99.90;;;;;;5075716;28;20170;-74
2022/07/15 06:49:19;;;;;;;1.47;1.37;;;24.60;99.90;;;;;;5076782;28;20190;-72
2022/07/15 06:51:44;;;;;;;2.10;1.50;;;25.20;99.90;;;;;;5075168;28;20241;-71
2022/07/15 06:54:11;;;;;;;1.50;1.23;;;25.90;99.50;;;;;;5074487;28;20177;-72
2022/07/15 06:56:37;;;;;;;1.20;1.00;;;26.40;96.20;;;;;;5074591;28;20205;-71
2022/07/15 06:59:03;;;;;;;2.33;1.50;;;26.90;92.30;;;;;;5074525;28;20469;-72
2022/07/15 07:01:28;;;;;;;3.50;1.90;;;27.20;90.20;;;;;;5074404;28;20743;-71
2022/07/15 07:03:54;;;;;;;1.37;1.27;;;27.70;85.30;;;;;;5074814;28;20174;-72
2022/07/15 07:06:19;;;;;;;3.13;1.70;;;27.90;79.40;;;;;;5074302;28;20181;-72
2022/07/15 07:08:47;;;;;;;2.10;1.40;;;28.40;77.50;;;;;;5074007;28;20243;-72
2022/07/15 07:11:14;;;;;;;1.73;1.50;;;29.00;73.60;;;;;;5074543;28;20166;-72
2022/07/15 07:13:39;;;;;;;1.50;1.40;;;29.50;71.40;;;;;;5074353;28;20414;-72
2022/07/15 07:16:05;;;;;;;5.73;1.70;;;30.10;65.90;;;;;;5073790;28;20448;-72
2022/07/15 07:18:31;;;;;;;3.20;1.80;;;30.60;62.50;;;;;;5074231;28;20202;-72
2022/07/15 07:20:57;;;;;;;1.93;1.73;;;31.30;60.40;;;;;;5074222;28;20487;-72
2022/07/15 07:23:26;;;;;;;3.57;1.43;;;31.90;58.00;;;;;;5074578;28;20444;-72
2022/07/15 07:25:52;;;;;;;2.70;1.87;;;31.90;56.60;;;;;;5074129;28;20167;-72
2022/07/15 07:28:18;;;;;;;1.40;1.30;;;32.30;53.90;;;;;;5073754;28;20400;-72
2022/07/15 07:30:45;;;;;;;1.67;1.17;;;31.90;52.20;;;;;;5073561;28;21117;-72
2022/07/15 07:33:11;;;;;;;1.50;1.40;;;31.60;52.00;;;;;;5073762;28;20658;-71
2022/07/15 07:35:37;;;;;;;2.87;1.50;;;31.60;52.00;;;;;;5073552;28;20455;-72
2022/07/15 07:38:02;;;;;;;1.73;1.40;;;31.20;52.30;;;;;;5074041;28;20405;-72
2022/07/15 07:40:28;;;;;;;1.50;0.90;;;31.10;52.00;;;;;;5072485;28;20190;-72
2022/07/15 07:42:56;;;;;;;2.33;1.60;;;31.70;51.80;;;;;;5073846;28;20174;-72
2022/07/15 07:45:24;;;;;;;3.77;1.80;;;32.70;50.70;;;;;;5072642;28;20201;-72
2022/07/15 07:47:49;;;;;;;5.20;1.97;;;33.60;48.30;;;;;;5074319;28;20444;-73
2022/07/15 07:50:16;;;;;;;2.13;1.93;;;34.50;47.20;;;;;;5075968;28;20470;-73
2022/07/15 07:52:42;;;;;;;3.50;1.40;;;35.50;44.90;;;;;;5075626;28;20239;-73
2022/07/15 07:55:08;;;;;;;1.73;1.60;;;35.70;42.80;;;;;;5075598;28;20452;-73
2022/07/15 07:57:34;;;;;;;2.10;1.23;;;35.40;43.10;;;;;;5073942;28;20412;-73
2022/07/15 07:59:59;;;;;;;4.20;2.20;;;35.10;41.80;;;;;;5074285;28;20497;-72
2022/07/15 08:02:25;;;;;;;2.03;1.50;;;35.30;41.40;;;;;;5075717;28;20313;-73
2022/07/15 08:04:51;;;;;;;2.03;1.80;;;35.90;39.10;;;;;;5074254;28;20163;-74
2022/07/15 08:07:17;;;;;;;3.83;1.77;;;36.90;38.40;;;;;;5075454;28;20200;-73
2022/07/15 08:09:42;;;;;;;3.37;1.60;;;37.10;38.70;;;;;;5074628;28;20519;-73
2022/07/15 08:12:08;;;;;;;1.90;1.60;;;37.90;38.20;;;;;;5074760;28;20259;-74
2022/07/15 08:14:33;;;;;;;2.27;1.93;;;38.70;36.20;;;;;;5075509;28;20170;-74
2022/07/15 08:16:59;;;;;;;1.80;1.70;;;39.50;35.50;;;;;;5074459;28;20170;-74
2022/07/15 08:19:24;;;;;;;1.70;1.40;;;40.20;33.60;;;;;;5075765;28;20690;-74
2022/07/15 08:21:50;;;;;;;2.03;1.50;;;40.70;32.60;;;;;;5074167;28;20628;-74
2022/07/15 08:24:17;;;;;;;1.50;1.40;;;40.80;31.10;;;;;;5074274;28;20665;-74
2022/07/15 08:26:42;;;;;;;2.53;2.30;;;41.20;31.00;;;;;;5076501;28;20883;-74
2022/07/15 08:29:08;;;;;;;1.53;1.43;;;41.50;30.60;;;;;;5072628;28;20462;-73
2022/07/15 08:31:35;;;;;;;3.70;3.10;;;42.00;28.70;;;;;;5072530;28;20198;-73
2022/07/15 08:34:02;;;;;;;1.83;1.73;;;42.70;29.10;;;;;;5072385;28;20636;-73
2022/07/15 08:36:27;;;;;;;2.23;1.77;;;41.80;28.90;;;;;;5072064;28;20469;-73
2022/07/15 08:38:54;;;;;;;1.87;1.57;;;40.10;29.60;;;;;;5072560;28;20837;-73
2022/07/15 08:41:20;;;;;;;1.90;1.60;;;38.00;31.10;;;;;;5072486;28;20587;-72
2022/07/15 08:43:45;;;;;;;1.70;1.10;;;36.30;32.80;;;;;;5073202;28;20404;-73
2022/07/15 08:46:13;;;;;;;2.13;1.40;;;34.70;35.10;;;;;;5074405;28;20214;-72
2022/07/15 08:48:41;;;;;;;1.30;1.00;;;33.10;36.30;;;;;;5073677;28;20253;-72
2022/07/15 08:51:09;;;;;;;1.40;1.20;;;32.50;37.50;;;;;;5072334;28;20405;-72
2022/07/15 08:53:35;;;;;;;1.30;1.10;;;32.80;38.00;;;;;;5073955;28;20805;-74
2022/07/15 08:56:02;;;;;;;1.57;1.30;;;34.00;37.10;;;;;;5073374;28;20452;-73
2022/07/15 08:58:28;;;;;;;1.63;1.50;;;35.70;35.50;;;;;;5074981;28;20487;-74
2022/07/15 09:00:54;;;;;;;1.83;1.63;;;37.20;32.00;;;;;;5074154;28;20483;-74
2022/07/15 09:03:19;;;;;;;1.93;1.30;;;38.20;31.10;;;;;;5073424;28;20186;-72
2022/07/15 09:05:45;;;;;;;2.93;1.60;;;37.50;32.20;;;;;;5071830;28;20297;-72
2022/07/15 09:08:14;;;;;;;2.00;1.20;;;36.70;32.30;;;;;;5070761;28;20178;-72
2022/07/15 09:10:51;;;;;;;1.33;1.17;;;35.30;33.30;;;;;;5071895;28;20194;-72
2022/07/15 09:13:40;;;;;;;1.30;1.03;;;34.40;33.40;;;;;;5070681;28;20462;-72
2022/07/15 09:16:13;;;;;;;1.17;1.00;;;32.90;35.20;;;;;;5071630;28;20514;-72
2022/07/15 09:18:41;;;;;;;1.57;1.00;;;32.00;36.70;;;;;;5071917;28;20401;-72
2022/07/15 09:21:22;;;;;;;1.10;0.90;;;32.40;37.40;;;;;;5070830;28;20450;-72
2022/07/15 09:23:50;;;;;;;1.20;1.10;;;33.70;36.40;;;;;;5071881;28;20449;-72
2022/07/15 09:26:25;;;;;;;4.87;1.47;;;33.70;35.80;;;;;;5071674;28;20470;-72
2022/07/15 09:28:52;;;;;;;1.40;0.93;;;33.00;34.90;;;;;;5072055;28;20434;-72
2022/07/15 09:34:16;;;;;;;1.20;1.00;;;31.00;38.00;;;;;;5071986;28;20407;-72
2022/07/15 09:36:46;;;;;;;2.83;1.00;;;30.10;38.90;;;;;;5071855;28;20456;-72
2022/07/15 09:39:12;;;;;;;1.07;0.93;;;30.50;41.60;;;;;;5071749;28;20178;-72
2022/07/15 09:41:37;;;;;;;2.50;1.20;;;31.40;40.50;;;;;;5071747;28;20412;-72
2022/07/15 09:44:09;;;;;;;1.20;1.10;;;32.00;39.50;;;;;;5071596;28;20163;-73
2022/07/15 09:47:00;;;;;;;1.40;1.30;;;33.10;38.50;;;;;;5071813;28;20195;-73
2022/07/15 09:49:25;;;;;;;3.43;1.77;;;35.10;36.30;;;;;;5071658;28;20420;-73
2022/07/15 09:51:59;;;;;;;2.30;1.37;;;36.70;32.10;;;;;;5071511;28;20822;-73
2022/07/15 09:54:33;;;;;;;2.70;1.43;;;36.50;33.40;;;;;;5071424;28;20201;-73
2022/07/15 09:57:02;;;;;;;1.67;1.03;;;36.30;33.70;;;;;;5072370;28;20496;-72
2022/07/15 09:59:31;;;;;;;2.00;1.20;;;35.70;34.10;;;;;;5071601;28;20448;-72
2022/07/15 10:01:58;;;;;;;1.47;1.00;;;34.90;35.00;;;;;;5071513;28;20416;-72
2022/07/15 10:04:25;;;;;;;2.50;1.37;;;35.00;36.50;;;;;;5071229;28;20416;-73
2022/07/15 10:06:53;;;;;;;1.93;1.17;;;35.80;35.30;;;;;;5072259;28;20524;-73
2022/07/15 10:09:24;;;;;;;1.57;1.20;;;37.00;33.80;;;;;;5075154;28;20428;-74
2022/07/15 10:12:19;;;;;;;2.20;1.47;;;38.70;33.40;;;;;;5075320;28;20407;-74
2022/07/15 10:15:12;;;;;;;2.33;2.03;;;40.40;30.70;;;;;;5074513;28;20423;-74
2022/07/15 10:17:52;;;;;;;3.70;2.10;;;41.00;29.70;;;;;;5075258;28;20386;-74
2022/07/15 10:20:47;;;;;;;2.80;1.80;;;42.20;29.50;;;;;;5075219;28;20416;-73
2022/07/15 10:23:27;;;;;;;2.10;1.70;;;43.30;27.40;;;;;;5075167;28;20420;-73
2022/07/15 10:26:18;;;;;;;1.20;1.10;;;42.20;26.80;;;;;;5074603;28;20915;-73
2022/07/15 10:29:01;;;;;;;1.30;1.20;;;40.30;28.80;;;;;;5074861;28;20415;-73
2022/07/15 10:31:29;;;;;;;1.97;1.13;;;38.40;29.50;;;;;;5074835;28;20757;-72
2022/07/15 10:34:04;;;;;;;1.73;1.13;;;36.30;30.30;;;;;;5074765;28;20378;-72
2022/07/15 10:36:52;;;;;;;2.33;1.20;;;34.70;32.70;;;;;;5074436;28;20878;-72
2022/07/15 10:39:20;;;;;;;1.30;0.90;;;33.90;34.70;;;;;;5074650;28;20469;-72
2022/07/15 10:42:03;;;;;;;1.20;1.10;;;35.10;33.70;;;;;;5074715;28;20430;-73
2022/07/15 10:44:34;;;;;;;1.57;1.20;;;37.00;33.30;;;;;;5075866;28;20412;-74
2022/07/15 10:47:12;;;;;;;3.23;1.53;;;39.00;29.40;;;;;;5077474;28;20413;-74
2022/07/15 10:49:38;;;;;;;1.40;1.10;;;39.30;27.70;;;;;;5076507;28;20822;-73
2022/07/15 10:52:14;;;;;;;2.60;1.50;;;38.30;30.00;;;;;;5074345;28;20431;-73
2022/07/15 10:54:42;;;;;;;2.23;1.10;;;36.90;31.20;;;;;;5074121;28;20454;-72
2022/07/15 10:57:08;;;;;;;2.43;1.10;;;36.00;31.80;;;;;;5074345;28;20495;-72
2022/07/15 10:59:41;;;;;;;1.87;1.20;;;34.60;33.10;;;;;;5073052;28;20835;-73
2022/07/15 11:02:06;;;;;;;1.53;1.20;;;33.80;34.90;;;;;;5074535;28;20407;-72
2022/07/15 11:04:33;;;;;;;1.20;1.00;;;33.00;35.20;;;;;;5073945;28;20397;-72
2022/07/15 11:07:07;;;;;;;1.20;0.90;;;32.80;36.50;;;;;;5074177;28;20197;-72
2022/07/15 11:09:53;;;;;;;1.50;1.00;;;33.90;35.10;;;;;;5072824;28;20466;-73
2022/07/15 11:12:28;;;;;;;1.97;1.37;;;36.10;33.60;;;;;;5074128;28;20901;-73
2022/07/15 11:15:04;;;;;;;4.70;2.37;;;38.30;32.70;;;;;;5073696;28;20411;-73
2022/07/15 11:17:29;;;;;;;3.47;2.27;;;39.50;31.10;;;;;;5073961;28;20499;-73
2022/07/15 11:20:01;;;;;;;1.30;1.20;;;41.10;30.00;;;;;;5072977;28;20499;-73
2022/07/15 11:22:29;;;;;;;1.30;1.20;;;42.30;28.50;;;;;;5073960;28;20166;-73
2022/07/15 11:24:55;;;;;;;1.33;1.10;;;41.80;28.10;;;;;;5072298;28;20408;-73
2022/07/15 11:27:24;;;;;;;2.10;1.97;;;41.30;28.40;;;;;;5073845;28;20400;-73
2022/07/15 11:29:53;;;;;;;2.77;1.93;;;41.90;28.90;;;;;;5073639;28;20420;-73
2022/07/15 11:32:21;;;;;;;2.70;2.23;;;43.10;27.90;;;;;;5073656;28;20458;-74
2022/07/15 11:34:56;;;;;;;2.93;2.23;;;44.00;28.00;;;;;;5073167;28;20993;-73
2022/07/15 11:37:33;;;;;;;4.10;2.77;;;44.30;26.90;;;;;;5073575;28;20386;-73
2022/07/15 11:40:09;;;;;;;3.60;2.10;;;44.10;26.60;;;;;;5073562;28;20420;-73
2022/07/15 11:45:38;;;;;;;1.37;1.20;;;41.70;26.80;;;;;;5075432;28;20415;-74
2022/07/15 11:48:08;;;;;;;2.37;1.90;;;39.60;27.90;;;;;;5074753;28;20868;-74
2022/07/15 11:50:48;;;;;;;1.20;1.10;;;38.80;28.80;;;;;;5075783;28;20406;-73
2022/07/15 11:53:14;;;;;;;2.13;1.57;;;38.40;29.90;;;;;;5075860;28;20804;-74
2022/07/15 11:55:54;;;;;;;1.00;0.83;;;39.20;29.90;;;;;;5076087;28;20523;-74
2022/07/15 11:58:33;;;;;;;3.73;1.70;;;40.50;29.60;;;;;;5074793;28;20416;-76
2022/07/15 12:01:00;;;;;;;2.03;1.30;;;41.00;28.80;;;;;;5075519;28;20407;-75
2022/07/15 12:03:34;;;;;;;3.43;1.20;;;40.30;28.50;;;;;;5075705;28;20379;-75
2022/07/15 12:06:13;;;;;;;1.30;1.20;;;39.20;29.80;;;;;;5074292;28;20409;-75
2022/07/15 12:08:45;;;;;;;1.27;1.13;;;37.80;30.20;;;;;;5075605;28;20412;-74
2022/07/15 12:11:25;;;;;;;1.37;1.10;;;36.70;31.20;;;;;;5074842;28;20992;-74
2022/07/15 12:13:56;;;;;;;1.57;0.90;;;35.90;31.60;;;;;;5076035;28;20956;-75
2022/07/15 12:16:41;;;;;;;3.67;1.33;;;36.70;32.80;;;;;;5074543;28;20459;-75
2022/07/15 12:19:09;;;;;;;2.30;1.37;;;37.90;29.40;;;;;;5075815;28;20793;-75
2022/07/15 12:21:38;;;;;;;1.07;0.90;;;38.10;28.80;;;;;;5074454;28;20409;-76
2022/07/15 12:24:14;;;;;;;1.53;1.27;;;38.40;28.30;;;;;;5075157;28;20397;-76
2022/07/15 12:26:42;;;;;;;1.30;1.00;;;39.30;28.80;;;;;;5074445;28;20416;-75
2022/07/15 12:29:10;;;;;;;3.40;1.40;;;40.40;29.20;;;;;;5075351;28;20785;-76
2022/07/15 12:31:38;;;;;;;4.20;1.30;;;40.70;28.70;;;;;;5073790;28;20409;-75
2022/07/15 12:34:04;;;;;;;3.67;1.47;;;41.00;29.20;;;;;;5074750;28;20416;-75
2022/07/15 12:36:34;;;;;;;3.77;1.27;;;41.20;28.60;;;;;;5073892;28;20456;-74
2022/07/15 12:39:10;;;;;;;3.33;1.30;;;41.10;28.50;;;;;;5072242;28;20324;-74
2022/07/15 12:41:37;;;;;;;1.70;1.30;;;40.10;27.90;;;;;;5072337;28;20371;-74
2022/07/15 12:44:05;;;;;;;1.37;1.17;;;39.00;29.30;;;;;;5072172;28;20404;-74
2022/07/15 12:46:56;;;;;;;2.43;1.13;;;38.70;30.00;;;;;;5070754;28;20436;-73
2022/07/15 12:49:46;;;;;;;1.77;1.30;;;39.20;28.70;;;;;;5072083;28;20778;-74
2022/07/15 12:52:21;;;;;;;1.10;0.97;;;39.50;29.00;;;;;;5072057;28;20532;-74
2022/07/15 12:54:48;;;;;;;1.20;1.07;;;38.90;29.30;;;;;;5070503;28;20450;-73
2022/07/15 12:57:22;;;;;;;2.67;1.03;;;37.70;30.10;;;;;;5072142;28;20465;-73
2022/07/15 12:59:56;;;;;;;1.50;0.90;;;36.60;31.20;;;;;;5072006;28;20919;-74
2022/07/15 13:02:23;;;;;;;1.30;1.20;;;35.50;32.40;;;;;;5070770;28;20407;-74